CCGS Sir Wilfrid Laurier — CGJK — position and weather

sailwx.info

Track history (hours):
 
Tides and Currents Weather Stations Pressure Air Temp Water Temp Dewpoint Dewpoint Depression Visibility Wind Speed Wind Dir Waves Ship Positions

Oceanographic research ship CCGS Sir Wilfrid Laurier (Canada)

Detailed information on ship capabilities available from ARCUS's ALIAS (Arctic Logistics Information and Support) project.

Last reported at 2019-Jul-04 17:44 UTC. Time now 2019-Sep-18 11:35 UTC.
Position N 48°58' W 126°32'.
Warning: this ship's position is months out of date.

Length 83 m; beam 16.2 m; draft 6 m.

Type: SAR. MMSI: 316052000.

Date/timePositionNaut miles runAvg speedWind from/ knotsBaromVisibWave heightAir tempDewpointWater temp
2019-Jul-04 17:44N 48°58' W 126°32'310.2
2019-Jul-04 17:26N 48°57' W 126°28'410.2
2019-Jul-04 17:00N 48°55' W 126°22'510.2
2019-Jul-04 16:30N 48°52' W 126°15'5 9.8
2019-Jul-04 16:01N 48°50' W 126°08'0 0.2
2019-Jul-04 15:30N 48°50' W 126°08'0 0.0
2019-Jul-04 15:00N 48°50' W 126°08'4 8.1
2019-Jul-04 14:30N 48°49' W 126°03'510.2
2019-Jul-04 14:00N 48°46' W 125°56'510.5
2019-Jul-04 13:30N 48°44' W 125°49'510.4
2019-Jul-04 13:00N 48°42' W 125°42'510.3
2019-Jul-04 12:30N 48°39' W 125°35'510.4
2019-Jul-04 12:00N 48°37' W 125°28'510.5
2019-Jul-04 11:30N 48°35' W 125°20'510.2
2019-Jul-04 11:00N 48°33' W 125°13'5 9.9
2019-Jul-04 10:29N 48°32' W 125°06'5 9.9
2019-Jul-04 10:00N 48°32' W 124°58'5 9.5
2019-Jul-04 09:30N 48°31' W 124°51'5 9.9
2019-Jul-04 09:00N 48°31' W 124°44'510.5
2019-Jul-04 08:30N 48°29' W 124°37'510.5
2019-Jul-04 08:00N 48°27' W 124°29'510.3
2019-Jul-04 07:30N 48°25' W 124°22'510.0
2019-Jul-04 07:00N 48°23' W 124°15'5 9.9
2019-Jul-04 06:30N 48°21' W 124°08'510.2
2019-Jul-04 06:00N 48°19' W 124°01'611.5
2019-Jul-04 05:30N 48°17' W 123°53'611.8
2019-Jul-04 04:59N 48°17' W 123°44'612.2
2019-Jul-04 04:29N 48°16' W 123°35'511.4
2019-Jul-04 04:00N 48°18' W 123°28'611.3
2019-Jul-04 03:30N 48°24' W 123°27'0 0.6
2019-Jul-04 03:00N 48°24' W 123°27'0 0.0
2019-Jul-04 02:00N 48°24' W 123°27'2 3.2
2019-Jul-04 01:30N 48°25' W 123°25'1 1.9
2019-Jul-04 00:59N 48°25' W 123°23'0 0.0
2019-Jul-04 00:29N 48°25' W 123°23'0 0.0
2019-Jul-03 23:59N 48°25' W 123°23'0 0.0
2019-Jul-03 23:29N 48°25' W 123°23'0 0.0
2019-Jul-03 22:59N 48°25' W 123°23'0 0.0
2019-Jul-03 22:29N 48°25' W 123°23'0 0.0
2019-Jul-03 21:59N 48°25' W 123°23'0 0.0
2019-Jul-03 21:29N 48°25' W 123°23'0 0.0
2019-Jul-03 20:59N 48°25' W 123°23'0 0.0
2019-Jul-03 20:29N 48°25' W 123°23'0 0.0
2019-Jul-03 19:59N 48°25' W 123°23'0 0.0
2019-Jul-03 19:29N 48°25' W 123°23'0 0.0
2019-Jul-03 18:59N 48°25' W 123°23'0 0.0
2019-Jul-03 18:29N 48°25' W 123°23'0 0.0
2019-Jul-03 17:59N 48°25' W 123°23'0 0.0
2019-Jul-03 17:29N 48°25' W 123°23'0 0.0
2019-Jul-03 16:59N 48°25' W 123°23'0 0.0
2019-Jul-03 16:29N 48°25' W 123°23'0 0.0
2019-Jul-03 15:59N 48°25' W 123°23'0 0.0
2019-Jul-03 15:29N 48°25' W 123°23'0 0.0
2019-Jul-03 14:59N 48°25' W 123°23'0 0.0
2019-Jul-03 14:29N 48°25' W 123°23'0 0.0
2019-Jul-03 13:59N 48°25' W 123°23'0 0.0
2019-Jul-03 13:29N 48°25' W 123°23'0 0.0
2019-Jul-03 12:59N 48°25' W 123°23'0 0.0
2019-Jul-03 12:29N 48°25' W 123°23'0 0.0
2019-Jul-03 11:59N 48°25' W 123°23'0 0.0
2019-Jul-03 11:29N 48°25' W 123°23'0 0.0
2019-Jul-03 10:59N 48°25' W 123°23'0 0.0
2019-Jul-03 10:29N 48°25' W 123°23'0 0.0
2019-Jul-03 09:59N 48°25' W 123°23'0 0.0
2019-Jul-03 09:29N 48°25' W 123°23'0 0.0
2019-Jul-03 08:59N 48°25' W 123°23'0 0.0
2019-Jul-03 08:29N 48°25' W 123°23'0 0.0
2019-Jul-03 07:59N 48°25' W 123°23'0 0.0
2019-Jul-03 07:29N 48°25' W 123°23'0 0.0
2019-Jul-03 06:59N 48°25' W 123°23'0 0.0
2019-Jul-03 06:29N 48°25' W 123°23'0 0.0
2019-Jul-03 05:59N 48°25' W 123°23'0 0.0
2019-Jul-03 05:29N 48°25' W 123°23'0 0.0
2019-Jul-03 04:59N 48°25' W 123°23'0 0.0
2019-Jul-03 04:29N 48°25' W 123°23'0 0.0
2019-Jul-03 03:59N 48°25' W 123°23'0 0.0
2019-Jul-03 03:29N 48°25' W 123°23'0 0.0
2019-Jul-03 02:59N 48°25' W 123°23'0 0.0
2019-Jul-03 01:59N 48°25' W 123°23'0 0.0
2019-Jul-03 01:29N 48°25' W 123°23'0 0.0
2019-Jul-03 00:59N 48°25' W 123°23'0 0.0
2019-Jul-03 00:29N 48°25' W 123°23'0 0.0
2019-Jul-02 23:59N 48°25' W 123°23'0 0.0
2019-Jul-02 23:29N 48°25' W 123°23'0 0.0
2019-Jul-02 22:59N 48°25' W 123°23'0 0.0
2019-Jul-02 22:29N 48°25' W 123°23'0 0.0
2019-Jul-02 21:59N 48°25' W 123°23'0 0.0
2019-Jul-02 21:29N 48°25' W 123°23'0 0.0
2019-Jul-02 20:59N 48°25' W 123°23'0 0.0
2019-Jul-02 20:29N 48°25' W 123°23'0 0.0
2019-Jul-02 19:59N 48°25' W 123°23'0 0.0
2019-Jul-02 19:29N 48°25' W 123°23'0 0.0
2019-Jul-02 18:59N 48°25' W 123°23'0 0.0
2019-Jul-02 18:29N 48°25' W 123°23'0 0.0
2019-Jul-02 17:59N 48°25' W 123°23'0 0.0
2019-Jul-02 17:29N 48°25' W 123°23'0 0.0
2019-Jul-02 16:59N 48°25' W 123°23'0 0.0
2019-Jul-02 16:29N 48°25' W 123°23'0 0.0
2019-Jul-02 15:59N 48°25' W 123°23'0 0.0
2019-Jul-02 15:29N 48°25' W 123°23'0 0.0
2019-Jul-02 14:59N 48°25' W 123°23'0 0.0
2019-Jul-02 14:29N 48°25' W 123°23'0 0.0
2019-Jul-02 13:59N 48°25' W 123°23'0 0.0
2019-Jul-02 13:29N 48°25' W 123°23'0 0.0
2019-Jul-02 12:59N 48°25' W 123°23'0 0.0
2019-Jul-02 12:29N 48°25' W 123°23'0 0.0
2019-Jul-02 11:59N 48°25' W 123°23'0 0.0
2019-Jul-02 11:29N 48°25' W 123°23'0 0.0
2019-Jul-02 10:59N 48°25' W 123°23'0 0.0
2019-Jul-02 10:29N 48°25' W 123°23'0 0.0
2019-Jul-02 09:59N 48°25' W 123°23'0 0.0
2019-Jul-02 09:29N 48°25' W 123°23'0 0.0
2019-Jul-02 08:59N 48°25' W 123°23'0 0.0
2019-Jul-02 08:29N 48°25' W 123°23'0 0.0
2019-Jul-02 07:59N 48°25' W 123°23'0 0.0
2019-Jul-02 07:29N 48°25' W 123°23'0 0.0
2019-Jul-02 06:59N 48°25' W 123°23'0 0.0
2019-Jul-02 06:29N 48°25' W 123°23'0 0.0
2019-Jul-02 05:59N 48°25' W 123°23'0 0.0
2019-Jul-02 05:29N 48°25' W 123°23'0 0.0
2019-Jul-02 04:59N 48°25' W 123°23'0 0.0
2019-Jul-02 04:29N 48°25' W 123°23'0 0.0
2019-Jul-02 03:59N 48°25' W 123°23'0 0.0
2019-Jul-02 03:29N 48°25' W 123°23'0 0.0
2019-Jul-02 02:59N 48°25' W 123°23'0 0.0
2019-Jul-02 01:59N 48°25' W 123°23'0 0.0
2019-Jul-02 01:29N 48°25' W 123°23'0 0.0
2019-Jul-02 00:59N 48°25' W 123°23'0 0.0
2019-Jul-02 00:29N 48°25' W 123°23'0 0.0
2019-Jul-01 23:59N 48°25' W 123°23'0 0.0
2019-Jul-01 23:29N 48°25' W 123°23'0 0.0
2019-Jul-01 22:59N 48°25' W 123°23'0 0.0
2019-Jul-01 22:29N 48°25' W 123°23'0 0.0
2019-Jul-01 21:59N 48°25' W 123°23'0 0.0
2019-Jul-01 21:29N 48°25' W 123°23'0 0.0
2019-Jul-01 20:59N 48°25' W 123°23'0 0.0
2019-Jul-01 20:29N 48°25' W 123°23'0 0.0
2019-Jul-01 19:59N 48°25' W 123°23'0 0.0
2019-Jul-01 19:29N 48°25' W 123°23'0 0.0
2019-Jul-01 18:59N 48°25' W 123°23'0 0.0
2019-Jul-01 18:29N 48°25' W 123°23'0 0.0
2019-Jul-01 17:59N 48°25' W 123°23'0 0.0
2019-Jul-01 17:29N 48°25' W 123°23'0 0.0
2019-Jul-01 16:59N 48°25' W 123°23'0 0.0
2019-Jul-01 16:29N 48°25' W 123°23'0 0.0
2019-Jul-01 15:59N 48°25' W 123°23'0 0.0
2019-Jul-01 15:29N 48°25' W 123°23'0 0.0
2019-Jul-01 14:59N 48°25' W 123°23'0 0.0
2019-Jul-01 14:29N 48°25' W 123°23'0 0.0
2019-Jul-01 13:59N 48°25' W 123°23'0 0.0
2019-Jul-01 13:29N 48°25' W 123°23'0 0.0
2019-Jul-01 12:59N 48°25' W 123°23'0 0.0
2019-Jul-01 12:29N 48°25' W 123°23'0 0.0
2019-Jul-01 11:59N 48°25' W 123°23'0 0.0
2019-Jul-01 11:29N 48°25' W 123°23'0 0.0
2019-Jul-01 10:59N 48°25' W 123°23'0 0.0
2019-Jul-01 10:29N 48°25' W 123°23'0 0.0
2019-Jul-01 09:59N 48°25' W 123°23'0 0.0
2019-Jul-01 09:29N 48°25' W 123°23'0 0.0
2019-Jul-01 08:59N 48°25' W 123°23'0 0.0
2019-Jul-01 08:29N 48°25' W 123°23'0 0.0
2019-Jul-01 07:59N 48°25' W 123°23'0 0.0
2019-Jul-01 07:29N 48°25' W 123°23'0 0.0
2019-Jul-01 06:59N 48°25' W 123°23'0 0.0
2019-Jul-01 06:29N 48°25' W 123°23'0 0.0
2019-Jul-01 05:59N 48°25' W 123°23'0 0.0
2019-Jul-01 05:29N 48°25' W 123°23'0 0.0
2019-Jul-01 04:59N 48°25' W 123°23'0 0.0
2019-Jul-01 04:29N 48°25' W 123°23'0 0.0
2019-Jul-01 03:59N 48°25' W 123°23'0 0.0
2019-Jul-01 03:29N 48°25' W 123°23'0 0.0
2019-Jul-01 02:56N 48°25' W 123°23'0 0.0
2019-Jul-01 02:29N 48°25' W 123°23'0 0.0
2019-Jul-01 01:59N 48°25' W 123°23'0 0.0
2019-Jul-01 01:29N 48°25' W 123°23'0 0.0
2019-Jul-01 00:59N 48°25' W 123°23'0 0.0
2019-Jul-01 00:26N 48°25' W 123°23'0 0.0
2019-Jun-30 23:59N 48°25' W 123°23'0 0.0
2019-Jun-30 23:29N 48°25' W 123°23'0 0.0
2019-Jun-30 22:59N 48°25' W 123°23'0 0.0
2019-Jun-30 22:29N 48°25' W 123°23'0 0.0
2019-Jun-30 21:59N 48°25' W 123°23'0 0.0
2019-Jun-30 21:29N 48°25' W 123°23'0 0.0
2019-Jun-30 20:59N 48°25' W 123°23'0 0.0
2019-Jun-30 20:29N 48°25' W 123°23'0 0.0
2019-Jun-30 19:59N 48°25' W 123°23'0 0.0
2019-Jun-30 19:29N 48°25' W 123°23'0 0.0
2019-Jun-30 18:59N 48°25' W 123°23'0 0.0
2019-Jun-30 18:29N 48°25' W 123°23'0 0.0
2019-Jun-30 17:59N 48°25' W 123°23'0 0.0
2019-Jun-30 17:29N 48°25' W 123°23'0 0.0
2019-Jun-30 16:59N 48°25' W 123°23'0 0.0
2019-Jun-30 16:29N 48°25' W 123°23'0 0.0
2019-Jun-30 15:59N 48°25' W 123°23'0 0.0
2019-Jun-30 15:29N 48°25' W 123°23'0 0.0
2019-Jun-30 14:59N 48°25' W 123°23'0 0.0
2019-Jun-30 14:29N 48°25' W 123°23'0 0.0
2019-Jun-30 13:59N 48°25' W 123°23'0 0.0
2019-Jun-30 13:29N 48°25' W 123°23'0 0.0
2019-Jun-30 12:59N 48°25' W 123°23'0 0.0
2019-Jun-30 12:29N 48°25' W 123°23'0 0.0
2019-Jun-30 11:59N 48°25' W 123°23'0 0.0
2019-Jun-30 11:29N 48°25' W 123°23'0 0.0
2019-Jun-30 10:59N 48°25' W 123°23'0 0.0
2019-Jun-30 10:29N 48°25' W 123°23'0 0.0
2019-Jun-30 09:59N 48°25' W 123°23'0 0.0
2019-Jun-30 09:29N 48°25' W 123°23'0 0.0
2019-Jun-30 08:59N 48°25' W 123°23'0 0.0
2019-Jun-30 08:29N 48°25' W 123°23'0 0.0
2019-Jun-30 07:59N 48°25' W 123°23'0 0.0
2019-Jun-30 07:29N 48°25' W 123°23'0 0.0
2019-Jun-30 06:59N 48°25' W 123°23'0 0.0
2019-Jun-30 06:29N 48°25' W 123°23'0 0.0
2019-Jun-30 05:59N 48°25' W 123°23'0 0.0
2019-Jun-30 05:29N 48°25' W 123°23'0 0.0
2019-Jun-30 04:59N 48°25' W 123°23'0 0.0
2019-Jun-30 04:29N 48°25' W 123°23'0 0.0
2019-Jun-30 03:59N 48°25' W 123°23'0 0.0
2019-Jun-30 03:29N 48°25' W 123°23'0 0.0
2019-Jun-30 02:59N 48°25' W 123°23'0 0.0
2019-Jun-30 02:29N 48°25' W 123°23'0 0.0
2019-Jun-30 01:59N 48°25' W 123°23'0 0.0
2019-Jun-30 01:29N 48°25' W 123°23'0 0.0
2019-Jun-30 00:59N 48°25' W 123°23'0 0.0
2019-Jun-30 00:29N 48°25' W 123°23'0 0.0
2019-Jun-29 23:59N 48°25' W 123°23'0 0.0
2019-Jun-29 23:29N 48°25' W 123°23'0 0.0
2019-Jun-29 22:59N 48°25' W 123°23'0 0.0
2019-Jun-29 22:29N 48°25' W 123°23'0 0.0
2019-Jun-29 21:59N 48°25' W 123°23'0 0.0
2019-Jun-29 21:29N 48°25' W 123°23'0 0.0
2019-Jun-29 20:59N 48°25' W 123°23'0 0.0
2019-Jun-29 20:29N 48°25' W 123°23'0 0.0
2019-Jun-29 19:59N 48°25' W 123°23'0 0.0
2019-Jun-29 19:29N 48°25' W 123°23'0 0.0
2019-Jun-29 18:59N 48°25' W 123°23'0 0.0
2019-Jun-29 18:29N 48°25' W 123°23'0 0.0
2019-Jun-29 17:59N 48°25' W 123°23'0 0.0
2019-Jun-29 17:29N 48°25' W 123°23'0 0.0
2019-Jun-29 16:59N 48°25' W 123°23'0 0.0
2019-Jun-29 16:29N 48°25' W 123°23'0 0.0
2019-Jun-29 15:59N 48°25' W 123°23'0 0.0
2019-Jun-29 15:29N 48°25' W 123°23'0 0.0
2019-Jun-29 14:59N 48°25' W 123°23'0 0.0
2019-Jun-29 14:29N 48°25' W 123°23'0 0.0
2019-Jun-29 13:59N 48°25' W 123°23'0 0.0
2019-Jun-29 13:29N 48°25' W 123°23'0 0.0
2019-Jun-29 12:59N 48°25' W 123°23'0 0.0
2019-Jun-29 12:29N 48°25' W 123°23'0 0.0
2019-Jun-29 11:59N 48°25' W 123°23'0 0.0
2019-Jun-29 11:29N 48°25' W 123°23'0 0.0
2019-Jun-29 10:59N 48°25' W 123°23'0 0.0
2019-Jun-29 10:29N 48°25' W 123°23'0 0.0
2019-Jun-29 09:59N 48°25' W 123°23'0 0.0
2019-Jun-29 09:29N 48°25' W 123°23'0 0.0
2019-Jun-29 08:59N 48°25' W 123°23'0 0.0
2019-Jun-29 08:29N 48°25' W 123°23'0 0.0
2019-Jun-29 07:59N 48°25' W 123°23'0 0.0
2019-Jun-29 07:29N 48°25' W 123°23'0 0.0
2019-Jun-29 06:59N 48°25' W 123°23'0 0.0
2019-Jun-29 06:29N 48°25' W 123°23'0 0.0
2019-Jun-29 05:59N 48°25' W 123°23'0 0.0
2019-Jun-29 05:29N 48°25' W 123°23'0 0.0
2019-Jun-29 04:59N 48°25' W 123°23'0 0.0
2019-Jun-29 04:29N 48°25' W 123°23'0 0.0
2019-Jun-29 03:59N 48°25' W 123°23'0 0.0
2019-Jun-29 03:29N 48°25' W 123°23'0 0.0
2019-Jun-29 02:59N 48°25' W 123°23'0 0.0
2019-Jun-29 01:58N 48°25' W 123°23'0 0.0
2019-Jun-29 01:28N 48°25' W 123°23'0 0.0
2019-Jun-29 00:58N 48°25' W 123°23'0 0.0
2019-Jun-29 00:28N 48°25' W 123°23'0 0.0
2019-Jun-28 23:58N 48°25' W 123°23'0 0.0
2019-Jun-28 23:28N 48°25' W 123°23'0 0.0
2019-Jun-28 22:58N 48°25' W 123°23'0 0.0
2019-Jun-28 22:28N 48°25' W 123°23'0 0.0
2019-Jun-28 21:58N 48°25' W 123°23'0 0.0
2019-Jun-28 21:28N 48°25' W 123°23'0 0.0
2019-Jun-28 20:55N 48°25' W 123°23'0 0.0
2019-Jun-28 20:28N 48°25' W 123°23'0 0.0
2019-Jun-28 19:58N 48°25' W 123°23'0 0.0
2019-Jun-28 19:28N 48°25' W 123°23'0 0.0
2019-Jun-28 18:58N 48°25' W 123°23'0 0.0
2019-Jun-28 18:28N 48°25' W 123°23'0 0.0
2019-Jun-28 17:55N 48°25' W 123°23'0 0.0
2019-Jun-28 17:28N 48°25' W 123°23'0 0.0
2019-Jun-28 16:58N 48°25' W 123°23'0 0.0
2019-Jun-28 16:28N 48°25' W 123°23'0 0.0
2019-Jun-28 15:58N 48°25' W 123°23'0 0.0
2019-Jun-28 15:28N 48°25' W 123°23'0 0.0
2019-Jun-28 14:58N 48°25' W 123°23'0 0.0
2019-Jun-28 14:28N 48°25' W 123°23'0 0.0
2019-Jun-28 13:58N 48°25' W 123°23'0 0.0
2019-Jun-28 13:28N 48°25' W 123°23'0 0.0
2019-Jun-28 12:58N 48°25' W 123°23'0 0.0
2019-Jun-28 12:28N 48°25' W 123°23'0 0.0
2019-Jun-28 11:58N 48°25' W 123°23'0 0.0
2019-Jun-28 11:28N 48°25' W 123°23'0 0.0
2019-Jun-28 10:58N 48°25' W 123°23'0 0.0
2019-Jun-28 10:28N 48°25' W 123°23'0 0.0
2019-Jun-28 09:58N 48°25' W 123°23'0 0.0
2019-Jun-28 09:28N 48°25' W 123°23'0 0.0
2019-Jun-28 08:58N 48°25' W 123°23'0 0.0
2019-Jun-28 08:28N 48°25' W 123°23'0 0.0
2019-Jun-28 07:58N 48°25' W 123°23'0 0.0
2019-Jun-28 07:28N 48°25' W 123°23'0 0.0
2019-Jun-28 06:58N 48°25' W 123°23'0 0.0
2019-Jun-28 06:28N 48°25' W 123°23'0 0.0
2019-Jun-28 05:58N 48°25' W 123°23'0 0.0
2019-Jun-28 05:28N 48°25' W 123°23'0 0.0
2019-Jun-28 04:58N 48°25' W 123°23'0 0.0
2019-Jun-28 04:28N 48°25' W 123°23'0 0.0
2019-Jun-28 03:58N 48°25' W 123°23'0 0.0
2019-Jun-28 03:28N 48°25' W 123°23'0 0.0
2019-Jun-28 02:58N 48°25' W 123°23'0 0.0
2019-Jun-28 02:28N 48°25' W 123°23'0 0.0
2019-Jun-28 01:58N 48°25' W 123°23'0 0.0
2019-Jun-28 01:28N 48°25' W 123°23'0 0.0
2019-Jun-28 00:58N 48°25' W 123°23'0 0.0
2019-Jun-28 00:28N 48°25' W 123°23'0 0.0
2019-Jun-27 23:58N 48°25' W 123°23'0 0.0
2019-Jun-27 23:28N 48°25' W 123°23'0 0.0
2019-Jun-27 22:58N 48°25' W 123°23'0 0.0
2019-Jun-27 22:28N 48°25' W 123°23'0 0.0
2019-Jun-27 21:58N 48°25' W 123°23'0 0.0
2019-Jun-27 21:28N 48°25' W 123°23'0 0.0
2019-Jun-27 20:58N 48°25' W 123°23'0 0.0
2019-Jun-27 20:28N 48°25' W 123°23'0 0.0
2019-Jun-27 19:58N 48°25' W 123°23'0 0.0
2019-Jun-27 19:28N 48°25' W 123°23'0 0.0
2019-Jun-27 18:58N 48°25' W 123°23'0 0.0
2019-Jun-27 18:28N 48°25' W 123°23'0 0.0
2019-Jun-27 17:58N 48°25' W 123°23'0 0.0
2019-Jun-27 17:28N 48°25' W 123°23'0 0.0
2019-Jun-27 16:58N 48°25' W 123°23'0 0.0
2019-Jun-27 16:28N 48°25' W 123°23'0 0.0
2019-Jun-27 15:58N 48°25' W 123°23'0 0.0
2019-Jun-27 15:28N 48°25' W 123°23'0 0.0
2019-Jun-27 14:58N 48°25' W 123°23'0 0.0
2019-Jun-27 14:28N 48°25' W 123°23'0 0.0
2019-Jun-27 13:58N 48°25' W 123°23'0 0.0
2019-Jun-27 13:28N 48°25' W 123°23'0 0.0
2019-Jun-27 12:58N 48°25' W 123°23'0 0.0
2019-Jun-27 12:28N 48°25' W 123°23'0 0.0
2019-Jun-27 11:58N 48°25' W 123°23'0 0.0
2019-Jun-27 11:28N 48°25' W 123°23'0 0.0
2019-Jun-27 10:58N 48°25' W 123°23'0 0.0
2019-Jun-27 10:28N 48°25' W 123°23'0 0.0
2019-Jun-27 09:58N 48°25' W 123°23'0 0.0
2019-Jun-27 09:28N 48°25' W 123°23'0 0.0
2019-Jun-27 08:58N 48°25' W 123°23'0 0.0
2019-Jun-27 08:28N 48°25' W 123°23'0 0.0
2019-Jun-27 07:58N 48°25' W 123°23'0 0.0
2019-Jun-27 07:28N 48°25' W 123°23'0 0.0
2019-Jun-27 06:58N 48°25' W 123°23'0 0.0
2019-Jun-27 04:28N 48°25' W 123°23'0 0.0
2019-Jun-27 03:58N 48°25' W 123°23'0 0.0
2019-Jun-27 03:28N 48°25' W 123°23'0 0.0
2019-Jun-27 02:58N 48°25' W 123°23'0 0.0
2019-Jun-27 01:58N 48°25' W 123°23'0 0.0
2019-Jun-27 01:28N 48°25' W 123°23'0 0.0
2019-Jun-27 00:58N 48°25' W 123°23'0 0.0
2019-Jun-27 00:28N 48°25' W 123°23'0 0.0
2019-Jun-26 12:30N 48°25' W 123°23'0 0.0
2019-Jun-26 12:00N 48°25' W 123°23'0 0.0
2019-Jun-26 11:30N 48°25' W 123°23'0 0.0
2019-Jun-26 11:00N 48°25' W 123°23'0 0.0
2019-Jun-26 10:30N 48°25' W 123°23'0 0.0
2019-Jun-26 10:00N 48°25' W 123°23'0 0.0
2019-Jun-26 09:30N 48°25' W 123°23'0 0.0
2019-Jun-26 05:30N 48°25' W 123°23'0 0.0
2019-Jun-26 05:00N 48°25' W 123°23'0 0.0
2019-Jun-26 04:30N 48°25' W 123°23'0 0.0
2019-Jun-26 03:00N 48°25' W 123°23'0 0.0
2019-Jun-26 02:00N 48°25' W 123°23'0 0.0
2019-Jun-26 01:30N 48°25' W 123°23'0 0.0
2019-Jun-26 01:00N 48°25' W 123°23'0 0.0
2019-Jun-26 00:30N 48°25' W 123°23'0 0.0
2019-Jun-26 00:00N 48°25' W 123°23'0 0.0
2019-Jun-25 23:30N 48°25' W 123°23'0 0.0
2019-Jun-25 23:00N 48°25' W 123°23'0 0.0
2019-Jun-25 22:30N 48°25' W 123°23'0 0.0
2019-Jun-25 22:00N 48°25' W 123°23'0 0.0
2019-Jun-25 21:30N 48°25' W 123°23'0 0.0
2019-Jun-25 20:00N 48°25' W 123°23'0 0.0
2019-Jun-25 19:30N 48°25' W 123°23'0 0.0
2019-Jun-25 19:00N 48°25' W 123°23'0 0.0
2019-Jun-25 18:30N 48°25' W 123°23'0 0.0
2019-Jun-25 18:00N 48°25' W 123°23'0 0.0
2019-Jun-25 17:30N 48°25' W 123°23'0 0.0
2019-Jun-25 09:30N 48°25' W 123°23'0 0.0
2019-Jun-25 09:00N 48°25' W 123°23'0 0.0
2019-Jun-25 08:30N 48°25' W 123°23'0 0.0
2019-Jun-25 08:00N 48°25' W 123°23'0 0.0
2019-Jun-25 07:30N 48°25' W 123°23'0 0.0
2019-Jun-25 07:00N 48°25' W 123°23'  
Track history (hours):
 
Tides and Currents Weather Stations Pressure Air Temp Water Temp Dewpoint Dewpoint Depression Visibility Wind Speed Wind Dir Waves Ship Positions

Oceanographic research ship CCGS Sir Wilfrid Laurier (Canada)

Detailed information on ship capabilities available from ARCUS's ALIAS (Arctic Logistics Information and Support) project.

Last reported at 2019-Jul-04 17:44 UTC. Time now 2019-Sep-18 11:35 UTC.
Position N 48°58' W 126°32'.
Warning: this ship's position is months out of date.

Length 83 m; beam 16.2 m; draft 6 m.

Type: SAR. MMSI: 316052000.

Date/timePositionNaut miles runAvg speedWind from/ knotsBaromVisibWave heightAir tempDewpointWater temp
2019-Jul-04 17:44N 48°58' W 126°32'310.2
2019-Jul-04 17:26N 48°57' W 126°28'410.2
2019-Jul-04 17:00N 48°55' W 126°22'510.2
2019-Jul-04 16:30N 48°52' W 126°15'5 9.8
2019-Jul-04 16:01N 48°50' W 126°08'0 0.2
2019-Jul-04 15:30N 48°50' W 126°08'0 0.0
2019-Jul-04 15:00N 48°50' W 126°08'4 8.1
2019-Jul-04 14:30N 48°49' W 126°03'510.2
2019-Jul-04 14:00N 48°46' W 125°56'510.5
2019-Jul-04 13:30N 48°44' W 125°49'510.4
2019-Jul-04 13:00N 48°42' W 125°42'510.3
2019-Jul-04 12:30N 48°39' W 125°35'510.4
2019-Jul-04 12:00N 48°37' W 125°28'510.5
2019-Jul-04 11:30N 48°35' W 125°20'510.2
2019-Jul-04 11:00N 48°33' W 125°13'5 9.9
2019-Jul-04 10:29N 48°32' W 125°06'5 9.9
2019-Jul-04 10:00N 48°32' W 124°58'5 9.5
2019-Jul-04 09:30N 48°31' W 124°51'5 9.9
2019-Jul-04 09:00N 48°31' W 124°44'510.5
2019-Jul-04 08:30N 48°29' W 124°37'510.5
2019-Jul-04 08:00N 48°27' W 124°29'510.3
2019-Jul-04 07:30N 48°25' W 124°22'510.0
2019-Jul-04 07:00N 48°23' W 124°15'5 9.9
2019-Jul-04 06:30N 48°21' W 124°08'510.2
2019-Jul-04 06:00N 48°19' W 124°01'611.5
2019-Jul-04 05:30N 48°17' W 123°53'611.8
2019-Jul-04 04:59N 48°17' W 123°44'612.2
2019-Jul-04 04:29N 48°16' W 123°35'511.4
2019-Jul-04 04:00N 48°18' W 123°28'611.3
2019-Jul-04 03:30N 48°24' W 123°27'0 0.6
2019-Jul-04 03:00N 48°24' W 123°27'0 0.0
2019-Jul-04 02:00N 48°24' W 123°27'2 3.2
2019-Jul-04 01:30N 48°25' W 123°25'1 1.9
2019-Jul-04 00:59N 48°25' W 123°23'0 0.0
2019-Jul-04 00:29N 48°25' W 123°23'0 0.0
2019-Jul-03 23:59N 48°25' W 123°23'0 0.0
2019-Jul-03 23:29N 48°25' W 123°23'0 0.0
2019-Jul-03 22:59N 48°25' W 123°23'0 0.0
2019-Jul-03 22:29N 48°25' W 123°23'0 0.0
2019-Jul-03 21:59N 48°25' W 123°23'0 0.0
2019-Jul-03 21:29N 48°25' W 123°23'0 0.0
2019-Jul-03 20:59N 48°25' W 123°23'0 0.0
2019-Jul-03 20:29N 48°25' W 123°23'0 0.0
2019-Jul-03 19:59N 48°25' W 123°23'0 0.0
2019-Jul-03 19:29N 48°25' W 123°23'0 0.0
2019-Jul-03 18:59N 48°25' W 123°23'0 0.0
2019-Jul-03 18:29N 48°25' W 123°23'0 0.0
2019-Jul-03 17:59N 48°25' W 123°23'0 0.0
2019-Jul-03 17:29N 48°25' W 123°23'0 0.0
2019-Jul-03 16:59N 48°25' W 123°23'0 0.0
2019-Jul-03 16:29N 48°25' W 123°23'0 0.0
2019-Jul-03 15:59N 48°25' W 123°23'0 0.0
2019-Jul-03 15:29N 48°25' W 123°23'0 0.0
2019-Jul-03 14:59N 48°25' W 123°23'0 0.0
2019-Jul-03 14:29N 48°25' W 123°23'0 0.0
2019-Jul-03 13:59N 48°25' W 123°23'0 0.0
2019-Jul-03 13:29N 48°25' W 123°23'0 0.0
2019-Jul-03 12:59N 48°25' W 123°23'0 0.0
2019-Jul-03 12:29N 48°25' W 123°23'0 0.0
2019-Jul-03 11:59N 48°25' W 123°23'0 0.0
2019-Jul-03 11:29N 48°25' W 123°23'0 0.0
2019-Jul-03 10:59N 48°25' W 123°23'0 0.0
2019-Jul-03 10:29N 48°25' W 123°23'0 0.0
2019-Jul-03 09:59N 48°25' W 123°23'0 0.0
2019-Jul-03 09:29N 48°25' W 123°23'0 0.0
2019-Jul-03 08:59N 48°25' W 123°23'0 0.0
2019-Jul-03 08:29N 48°25' W 123°23'0 0.0
2019-Jul-03 07:59N 48°25' W 123°23'0 0.0
2019-Jul-03 07:29N 48°25' W 123°23'0 0.0
2019-Jul-03 06:59N 48°25' W 123°23'0 0.0
2019-Jul-03 06:29N 48°25' W 123°23'0 0.0
2019-Jul-03 05:59N 48°25' W 123°23'0 0.0
2019-Jul-03 05:29N 48°25' W 123°23'0 0.0
2019-Jul-03 04:59N 48°25' W 123°23'0 0.0
2019-Jul-03 04:29N 48°25' W 123°23'0 0.0
2019-Jul-03 03:59N 48°25' W 123°23'0 0.0
2019-Jul-03 03:29N 48°25' W 123°23'0 0.0
2019-Jul-03 02:59N 48°25' W 123°23'0 0.0
2019-Jul-03 01:59N 48°25' W 123°23'0 0.0
2019-Jul-03 01:29N 48°25' W 123°23'0 0.0
2019-Jul-03 00:59N 48°25' W 123°23'0 0.0
2019-Jul-03 00:29N 48°25' W 123°23'0 0.0
2019-Jul-02 23:59N 48°25' W 123°23'0 0.0
2019-Jul-02 23:29N 48°25' W 123°23'0 0.0
2019-Jul-02 22:59N 48°25' W 123°23'0 0.0
2019-Jul-02 22:29N 48°25' W 123°23'0 0.0
2019-Jul-02 21:59N 48°25' W 123°23'0 0.0
2019-Jul-02 21:29N 48°25' W 123°23'0 0.0
2019-Jul-02 20:59N 48°25' W 123°23'0 0.0
2019-Jul-02 20:29N 48°25' W 123°23'0 0.0
2019-Jul-02 19:59N 48°25' W 123°23'0 0.0
2019-Jul-02 19:29N 48°25' W 123°23'0 0.0
2019-Jul-02 18:59N 48°25' W 123°23'0 0.0
2019-Jul-02 18:29N 48°25' W 123°23'0 0.0
2019-Jul-02 17:59N 48°25' W 123°23'0 0.0
2019-Jul-02 17:29N 48°25' W 123°23'0 0.0
2019-Jul-02 16:59N 48°25' W 123°23'0 0.0
2019-Jul-02 16:29N 48°25' W 123°23'0 0.0
2019-Jul-02 15:59N 48°25' W 123°23'0 0.0
2019-Jul-02 15:29N 48°25' W 123°23'0 0.0
2019-Jul-02 14:59N 48°25' W 123°23'0 0.0
2019-Jul-02 14:29N 48°25' W 123°23'0 0.0
2019-Jul-02 13:59N 48°25' W 123°23'0 0.0
2019-Jul-02 13:29N 48°25' W 123°23'0 0.0
2019-Jul-02 12:59N 48°25' W 123°23'0 0.0
2019-Jul-02 12:29N 48°25' W 123°23'0 0.0
2019-Jul-02 11:59N 48°25' W 123°23'0 0.0
2019-Jul-02 11:29N 48°25' W 123°23'0 0.0
2019-Jul-02 10:59N 48°25' W 123°23'0 0.0
2019-Jul-02 10:29N 48°25' W 123°23'0 0.0
2019-Jul-02 09:59N 48°25' W 123°23'0 0.0
2019-Jul-02 09:29N 48°25' W 123°23'0 0.0
2019-Jul-02 08:59N 48°25' W 123°23'0 0.0
2019-Jul-02 08:29N 48°25' W 123°23'0 0.0
2019-Jul-02 07:59N 48°25' W 123°23'0 0.0
2019-Jul-02 07:29N 48°25' W 123°23'0 0.0
2019-Jul-02 06:59N 48°25' W 123°23'0 0.0
2019-Jul-02 06:29N 48°25' W 123°23'0 0.0
2019-Jul-02 05:59N 48°25' W 123°23'0 0.0
2019-Jul-02 05:29N 48°25' W 123°23'0 0.0
2019-Jul-02 04:59N 48°25' W 123°23'0 0.0
2019-Jul-02 04:29N 48°25' W 123°23'0 0.0
2019-Jul-02 03:59N 48°25' W 123°23'0 0.0
2019-Jul-02 03:29N 48°25' W 123°23'0 0.0
2019-Jul-02 02:59N 48°25' W 123°23'0 0.0
2019-Jul-02 01:59N 48°25' W 123°23'0 0.0
2019-Jul-02 01:29N 48°25' W 123°23'0 0.0
2019-Jul-02 00:59N 48°25' W 123°23'0 0.0
2019-Jul-02 00:29N 48°25' W 123°23'0 0.0
2019-Jul-01 23:59N 48°25' W 123°23'0 0.0
2019-Jul-01 23:29N 48°25' W 123°23'0 0.0
2019-Jul-01 22:59N 48°25' W 123°23'0 0.0
2019-Jul-01 22:29N 48°25' W 123°23'0 0.0
2019-Jul-01 21:59N 48°25' W 123°23'0 0.0
2019-Jul-01 21:29N 48°25' W 123°23'0 0.0
2019-Jul-01 20:59N 48°25' W 123°23'0 0.0
2019-Jul-01 20:29N 48°25' W 123°23'0 0.0
2019-Jul-01 19:59N 48°25' W 123°23'0 0.0
2019-Jul-01 19:29N 48°25' W 123°23'0 0.0
2019-Jul-01 18:59N 48°25' W 123°23'0 0.0
2019-Jul-01 18:29N 48°25' W 123°23'0 0.0
2019-Jul-01 17:59N 48°25' W 123°23'0 0.0
2019-Jul-01 17:29N 48°25' W 123°23'0 0.0
2019-Jul-01 16:59N 48°25' W 123°23'0 0.0
2019-Jul-01 16:29N 48°25' W 123°23'0 0.0
2019-Jul-01 15:59N 48°25' W 123°23'0 0.0
2019-Jul-01 15:29N 48°25' W 123°23'0 0.0
2019-Jul-01 14:59N 48°25' W 123°23'0 0.0
2019-Jul-01 14:29N 48°25' W 123°23'0 0.0
2019-Jul-01 13:59N 48°25' W 123°23'0 0.0
2019-Jul-01 13:29N 48°25' W 123°23'0 0.0
2019-Jul-01 12:59N 48°25' W 123°23'0 0.0
2019-Jul-01 12:29N 48°25' W 123°23'0 0.0
2019-Jul-01 11:59N 48°25' W 123°23'0 0.0
2019-Jul-01 11:29N 48°25' W 123°23'0 0.0
2019-Jul-01 10:59N 48°25' W 123°23'0 0.0
2019-Jul-01 10:29N 48°25' W 123°23'0 0.0
2019-Jul-01 09:59N 48°25' W 123°23'0 0.0
2019-Jul-01 09:29N 48°25' W 123°23'0 0.0
2019-Jul-01 08:59N 48°25' W 123°23'0 0.0
2019-Jul-01 08:29N 48°25' W 123°23'0 0.0
2019-Jul-01 07:59N 48°25' W 123°23'0 0.0
2019-Jul-01 07:29N 48°25' W 123°23'0 0.0
2019-Jul-01 06:59N 48°25' W 123°23'0 0.0
2019-Jul-01 06:29N 48°25' W 123°23'0 0.0
2019-Jul-01 05:59N 48°25' W 123°23'0 0.0
2019-Jul-01 05:29N 48°25' W 123°23'0 0.0
2019-Jul-01 04:59N 48°25' W 123°23'0 0.0
2019-Jul-01 04:29N 48°25' W 123°23'0 0.0
2019-Jul-01 03:59N 48°25' W 123°23'0 0.0
2019-Jul-01 03:29N 48°25' W 123°23'0 0.0
2019-Jul-01 02:56N 48°25' W 123°23'0 0.0
2019-Jul-01 02:29N 48°25' W 123°23'0 0.0
2019-Jul-01 01:59N 48°25' W 123°23'0 0.0
2019-Jul-01 01:29N 48°25' W 123°23'0 0.0
2019-Jul-01 00:59N 48°25' W 123°23'0 0.0
2019-Jul-01 00:26N 48°25' W 123°23'0 0.0
2019-Jun-30 23:59N 48°25' W 123°23'0 0.0
2019-Jun-30 23:29N 48°25' W 123°23'0 0.0
2019-Jun-30 22:59N 48°25' W 123°23'0 0.0
2019-Jun-30 22:29N 48°25' W 123°23'0 0.0
2019-Jun-30 21:59N 48°25' W 123°23'0 0.0
2019-Jun-30 21:29N 48°25' W 123°23'0 0.0
2019-Jun-30 20:59N 48°25' W 123°23'0 0.0
2019-Jun-30 20:29N 48°25' W 123°23'0 0.0
2019-Jun-30 19:59N 48°25' W 123°23'0 0.0
2019-Jun-30 19:29N 48°25' W 123°23'0 0.0
2019-Jun-30 18:59N 48°25' W 123°23'0 0.0
2019-Jun-30 18:29N 48°25' W 123°23'0 0.0
2019-Jun-30 17:59N 48°25' W 123°23'0 0.0
2019-Jun-30 17:29N 48°25' W 123°23'0 0.0
2019-Jun-30 16:59N 48°25' W 123°23'0 0.0
2019-Jun-30 16:29N 48°25' W 123°23'0 0.0
2019-Jun-30 15:59N 48°25' W 123°23'0 0.0
2019-Jun-30 15:29N 48°25' W 123°23'0 0.0
2019-Jun-30 14:59N 48°25' W 123°23'0 0.0
2019-Jun-30 14:29N 48°25' W 123°23'0 0.0
2019-Jun-30 13:59N 48°25' W 123°23'0 0.0
2019-Jun-30 13:29N 48°25' W 123°23'0 0.0
2019-Jun-30 12:59N 48°25' W 123°23'0 0.0
2019-Jun-30 12:29N 48°25' W 123°23'0 0.0
2019-Jun-30 11:59N 48°25' W 123°23'0 0.0
2019-Jun-30 11:29N 48°25' W 123°23'0 0.0
2019-Jun-30 10:59N 48°25' W 123°23'0 0.0
2019-Jun-30 10:29N 48°25' W 123°23'0 0.0
2019-Jun-30 09:59N 48°25' W 123°23'0 0.0
2019-Jun-30 09:29N 48°25' W 123°23'0 0.0
2019-Jun-30 08:59N 48°25' W 123°23'0 0.0
2019-Jun-30 08:29N 48°25' W 123°23'0 0.0
2019-Jun-30 07:59N 48°25' W 123°23'0 0.0
2019-Jun-30 07:29N 48°25' W 123°23'0 0.0
2019-Jun-30 06:59N 48°25' W 123°23'0 0.0
2019-Jun-30 06:29N 48°25' W 123°23'0 0.0
2019-Jun-30 05:59N 48°25' W 123°23'0 0.0
2019-Jun-30 05:29N 48°25' W 123°23'0 0.0
2019-Jun-30 04:59N 48°25' W 123°23'0 0.0
2019-Jun-30 04:29N 48°25' W 123°23'0 0.0
2019-Jun-30 03:59N 48°25' W 123°23'0 0.0
2019-Jun-30 03:29N 48°25' W 123°23'0 0.0
2019-Jun-30 02:59N 48°25' W 123°23'0 0.0
2019-Jun-30 02:29N 48°25' W 123°23'0 0.0
2019-Jun-30 01:59N 48°25' W 123°23'0 0.0
2019-Jun-30 01:29N 48°25' W 123°23'0 0.0
2019-Jun-30 00:59N 48°25' W 123°23'0 0.0
2019-Jun-30 00:29N 48°25' W 123°23'0 0.0
2019-Jun-29 23:59N 48°25' W 123°23'0 0.0
2019-Jun-29 23:29N 48°25' W 123°23'0 0.0
2019-Jun-29 22:59N 48°25' W 123°23'0 0.0
2019-Jun-29 22:29N 48°25' W 123°23'0 0.0
2019-Jun-29 21:59N 48°25' W 123°23'0 0.0
2019-Jun-29 21:29N 48°25' W 123°23'0 0.0
2019-Jun-29 20:59N 48°25' W 123°23'0 0.0
2019-Jun-29 20:29N 48°25' W 123°23'0 0.0
2019-Jun-29 19:59N 48°25' W 123°23'0 0.0
2019-Jun-29 19:29N 48°25' W 123°23'0 0.0
2019-Jun-29 18:59N 48°25' W 123°23'0 0.0
2019-Jun-29 18:29N 48°25' W 123°23'0 0.0
2019-Jun-29 17:59N 48°25' W 123°23'0 0.0
2019-Jun-29 17:29N 48°25' W 123°23'0 0.0
2019-Jun-29 16:59N 48°25' W 123°23'0 0.0
2019-Jun-29 16:29N 48°25' W 123°23'0 0.0
2019-Jun-29 15:59N 48°25' W 123°23'0 0.0
2019-Jun-29 15:29N 48°25' W 123°23'0 0.0
2019-Jun-29 14:59N 48°25' W 123°23'0 0.0
2019-Jun-29 14:29N 48°25' W 123°23'0 0.0
2019-Jun-29 13:59N 48°25' W 123°23'0 0.0
2019-Jun-29 13:29N 48°25' W 123°23'0 0.0
2019-Jun-29 12:59N 48°25' W 123°23'0 0.0
2019-Jun-29 12:29N 48°25' W 123°23'0 0.0
2019-Jun-29 11:59N 48°25' W 123°23'0 0.0
2019-Jun-29 11:29N 48°25' W 123°23'0 0.0
2019-Jun-29 10:59N 48°25' W 123°23'0 0.0
2019-Jun-29 10:29N 48°25' W 123°23'0 0.0
2019-Jun-29 09:59N 48°25' W 123°23'0 0.0
2019-Jun-29 09:29N 48°25' W 123°23'0 0.0
2019-Jun-29 08:59N 48°25' W 123°23'0 0.0
2019-Jun-29 08:29N 48°25' W 123°23'0 0.0
2019-Jun-29 07:59N 48°25' W 123°23'0 0.0
2019-Jun-29 07:29N 48°25' W 123°23'0 0.0
2019-Jun-29 06:59N 48°25' W 123°23'0 0.0
2019-Jun-29 06:29N 48°25' W 123°23'0 0.0
2019-Jun-29 05:59N 48°25' W 123°23'0 0.0
2019-Jun-29 05:29N 48°25' W 123°23'0 0.0
2019-Jun-29 04:59N 48°25' W 123°23'0 0.0
2019-Jun-29 04:29N 48°25' W 123°23'0 0.0
2019-Jun-29 03:59N 48°25' W 123°23'0 0.0
2019-Jun-29 03:29N 48°25' W 123°23'0 0.0
2019-Jun-29 02:59N 48°25' W 123°23'0 0.0
2019-Jun-29 01:58N 48°25' W 123°23'0 0.0
2019-Jun-29 01:28N 48°25' W 123°23'0 0.0
2019-Jun-29 00:58N 48°25' W 123°23'0 0.0
2019-Jun-29 00:28N 48°25' W 123°23'0 0.0
2019-Jun-28 23:58N 48°25' W 123°23'0 0.0
2019-Jun-28 23:28N 48°25' W 123°23'0 0.0
2019-Jun-28 22:58N 48°25' W 123°23'0 0.0
2019-Jun-28 22:28N 48°25' W 123°23'0 0.0
2019-Jun-28 21:58N 48°25' W 123°23'0 0.0
2019-Jun-28 21:28N 48°25' W 123°23'0 0.0
2019-Jun-28 20:55N 48°25' W 123°23'0 0.0
2019-Jun-28 20:28N 48°25' W 123°23'0 0.0
2019-Jun-28 19:58N 48°25' W 123°23'0 0.0
2019-Jun-28 19:28N 48°25' W 123°23'0 0.0
2019-Jun-28 18:58N 48°25' W 123°23'0 0.0
2019-Jun-28 18:28N 48°25' W 123°23'0 0.0
2019-Jun-28 17:55N 48°25' W 123°23'0 0.0
2019-Jun-28 17:28N 48°25' W 123°23'0 0.0
2019-Jun-28 16:58N 48°25' W 123°23'0 0.0
2019-Jun-28 16:28N 48°25' W 123°23'0 0.0
2019-Jun-28 15:58N 48°25' W 123°23'0 0.0
2019-Jun-28 15:28N 48°25' W 123°23'0 0.0
2019-Jun-28 14:58N 48°25' W 123°23'0 0.0
2019-Jun-28 14:28N 48°25' W 123°23'0 0.0
2019-Jun-28 13:58N 48°25' W 123°23'0 0.0
2019-Jun-28 13:28N 48°25' W 123°23'0 0.0
2019-Jun-28 12:58N 48°25' W 123°23'0 0.0
2019-Jun-28 12:28N 48°25' W 123°23'0 0.0
2019-Jun-28 11:58N 48°25' W 123°23'0 0.0
2019-Jun-28 11:28N 48°25' W 123°23'0 0.0
2019-Jun-28 10:58N 48°25' W 123°23'0 0.0
2019-Jun-28 10:28N 48°25' W 123°23'0 0.0
2019-Jun-28 09:58N 48°25' W 123°23'0 0.0
2019-Jun-28 09:28N 48°25' W 123°23'0 0.0
2019-Jun-28 08:58N 48°25' W 123°23'0 0.0
2019-Jun-28 08:28N 48°25' W 123°23'0 0.0
2019-Jun-28 07:58N 48°25' W 123°23'0 0.0
2019-Jun-28 07:28N 48°25' W 123°23'0 0.0
2019-Jun-28 06:58N 48°25' W 123°23'0 0.0
2019-Jun-28 06:28N 48°25' W 123°23'0 0.0
2019-Jun-28 05:58N 48°25' W 123°23'0 0.0
2019-Jun-28 05:28N 48°25' W 123°23'0 0.0
2019-Jun-28 04:58N 48°25' W 123°23'0 0.0
2019-Jun-28 04:28N 48°25' W 123°23'0 0.0
2019-Jun-28 03:58N 48°25' W 123°23'0 0.0
2019-Jun-28 03:28N 48°25' W 123°23'0 0.0
2019-Jun-28 02:58N 48°25' W 123°23'0 0.0
2019-Jun-28 02:28N 48°25' W 123°23'0 0.0
2019-Jun-28 01:58N 48°25' W 123°23'0 0.0
2019-Jun-28 01:28N 48°25' W 123°23'0 0.0
2019-Jun-28 00:58N 48°25' W 123°23'0 0.0
2019-Jun-28 00:28N 48°25' W 123°23'0 0.0
2019-Jun-27 23:58N 48°25' W 123°23'0 0.0
2019-Jun-27 23:28N 48°25' W 123°23'0 0.0
2019-Jun-27 22:58N 48°25' W 123°23'0 0.0
2019-Jun-27 22:28N 48°25' W 123°23'0 0.0
2019-Jun-27 21:58N 48°25' W 123°23'0 0.0
2019-Jun-27 21:28N 48°25' W 123°23'0 0.0
2019-Jun-27 20:58N 48°25' W 123°23'0 0.0
2019-Jun-27 20:28N 48°25' W 123°23'0 0.0
2019-Jun-27 19:58N 48°25' W 123°23'0 0.0
2019-Jun-27 19:28N 48°25' W 123°23'0 0.0
2019-Jun-27 18:58N 48°25' W 123°23'0 0.0
2019-Jun-27 18:28N 48°25' W 123°23'0 0.0
2019-Jun-27 17:58N 48°25' W 123°23'0 0.0
2019-Jun-27 17:28N 48°25' W 123°23'0 0.0
2019-Jun-27 16:58N 48°25' W 123°23'0 0.0
2019-Jun-27 16:28N 48°25' W 123°23'0 0.0
2019-Jun-27 15:58N 48°25' W 123°23'0 0.0
2019-Jun-27 15:28N 48°25' W 123°23'0 0.0
2019-Jun-27 14:58N 48°25' W 123°23'0 0.0
2019-Jun-27 14:28N 48°25' W 123°23'0 0.0
2019-Jun-27 13:58N 48°25' W 123°23'0 0.0
2019-Jun-27 13:28N 48°25' W 123°23'0 0.0
2019-Jun-27 12:58N 48°25' W 123°23'0 0.0
2019-Jun-27 12:28N 48°25' W 123°23'0 0.0
2019-Jun-27 11:58N 48°25' W 123°23'0 0.0
2019-Jun-27 11:28N 48°25' W 123°23'0 0.0
2019-Jun-27 10:58N 48°25' W 123°23'0 0.0
2019-Jun-27 10:28N 48°25' W 123°23'0 0.0
2019-Jun-27 09:58N 48°25' W 123°23'0 0.0
2019-Jun-27 09:28N 48°25' W 123°23'0 0.0
2019-Jun-27 08:58N 48°25' W 123°23'0 0.0
2019-Jun-27 08:28N 48°25' W 123°23'0 0.0
2019-Jun-27 07:58N 48°25' W 123°23'0 0.0
2019-Jun-27 07:28N 48°25' W 123°23'0 0.0
2019-Jun-27 06:58N 48°25' W 123°23'0 0.0
2019-Jun-27 04:28N 48°25' W 123°23'0 0.0
2019-Jun-27 03:58N 48°25' W 123°23'0 0.0
2019-Jun-27 03:28N 48°25' W 123°23'0 0.0
2019-Jun-27 02:58N 48°25' W 123°23'0 0.0
2019-Jun-27 01:58N 48°25' W 123°23'0 0.0
2019-Jun-27 01:28N 48°25' W 123°23'0 0.0
2019-Jun-27 00:58N 48°25' W 123°23'0 0.0
2019-Jun-27 00:28N 48°25' W 123°23'0 0.0
2019-Jun-26 12:30N 48°25' W 123°23'0 0.0
2019-Jun-26 12:00N 48°25' W 123°23'0 0.0
2019-Jun-26 11:30N 48°25' W 123°23'0 0.0
2019-Jun-26 11:00N 48°25' W 123°23'0 0.0
2019-Jun-26 10:30N 48°25' W 123°23'0 0.0
2019-Jun-26 10:00N 48°25' W 123°23'0 0.0
2019-Jun-26 09:30N 48°25' W 123°23'0 0.0
2019-Jun-26 05:30N 48°25' W 123°23'0 0.0
2019-Jun-26 05:00N 48°25' W 123°23'0 0.0
2019-Jun-26 04:30N 48°25' W 123°23'0 0.0
2019-Jun-26 03:00N 48°25' W 123°23'0 0.0
2019-Jun-26 02:00N 48°25' W 123°23'0 0.0
2019-Jun-26 01:30N 48°25' W 123°23'0 0.0
2019-Jun-26 01:00N 48°25' W 123°23'0 0.0
2019-Jun-26 00:30N 48°25' W 123°23'0 0.0
2019-Jun-26 00:00N 48°25' W 123°23'0 0.0
2019-Jun-25 23:30N 48°25' W 123°23'0 0.0
2019-Jun-25 23:00N 48°25' W 123°23'0 0.0
2019-Jun-25 22:30N 48°25' W 123°23'0 0.0
2019-Jun-25 22:00N 48°25' W 123°23'0 0.0
2019-Jun-25 21:30N 48°25' W 123°23'0 0.0
2019-Jun-25 20:00N 48°25' W 123°23'0 0.0
2019-Jun-25 19:30N 48°25' W 123°23'0 0.0
2019-Jun-25 19:00N 48°25' W 123°23'0 0.0
2019-Jun-25 18:30N 48°25' W 123°23'0 0.0
2019-Jun-25 18:00N 48°25' W 123°23'0 0.0
2019-Jun-25 17:30N 48°25' W 123°23'0 0.0
2019-Jun-25 09:30N 48°25' W 123°23'0 0.0
2019-Jun-25 09:00N 48°25' W 123°23'0 0.0
2019-Jun-25 08:30N 48°25' W 123°23'0 0.0
2019-Jun-25 08:00N 48°25' W 123°23'0 0.0
2019-Jun-25 07:30N 48°25' W 123°23'0 0.0
2019-Jun-25 07:00N 48°25' W 123°23'  

Dump ship's entire track history